sensor_id;sensor_type;location;lat;lon;timestamp;pressure;altitude;pressure_sealevel;temperature;humidity
20394;BME280;10356;50.544;9.642;2023-04-03T00:01:24;99339.94;;;3.74;82.15
20394;BME280;10356;50.544;9.642;2023-04-03T00:03:51;99334.94;;;3.69;82.30
20394;BME280;10356;50.544;9.642;2023-04-03T00:06:17;99338.41;;;3.68;81.36
20394;BME280;10356;50.544;9.642;2023-04-03T00:08:45;99335.16;;;3.63;81.60
20394;BME280;10356;50.544;9.642;2023-04-03T00:11:12;99337.88;;;3.59;80.27
20394;BME280;10356;50.544;9.642;2023-04-03T00:13:38;99346.38;;;3.61;80.16
20394;BME280;10356;50.544;9.642;2023-04-03T00:16:06;99334.44;;;3.58;79.60
20394;BME280;10356;50.544;9.642;2023-04-03T00:18:33;99340.31;;;3.63;79.62
20394;BME280;10356;50.544;9.642;2023-04-03T00:20:59;99343.28;;;3.51;79.85
20394;BME280;10356;50.544;9.642;2023-04-03T00:23:26;99342.56;;;3.46;79.82
20394;BME280;10356;50.544;9.642;2023-04-03T00:25:54;99352.84;;;3.46;80.35
20394;BME280;10356;50.544;9.642;2023-04-03T00:28:21;99346.22;;;3.39;79.39
20394;BME280;10356;50.544;9.642;2023-04-03T00:30:48;99338.13;;;3.50;78.80
20394;BME280;10356;50.544;9.642;2023-04-03T00:33:15;99342.81;;;3.38;78.89
20394;BME280;10356;50.544;9.642;2023-04-03T00:35:42;99348.09;;;3.34;79.10
20394;BME280;10356;50.544;9.642;2023-04-03T00:38:09;99348.88;;;3.36;79.51
20394;BME280;10356;50.544;9.642;2023-04-03T00:40:37;99353.25;;;3.34;80.34
20394;BME280;10356;50.544;9.642;2023-04-03T00:43:11;99353.53;;;3.25;81.14
20394;BME280;10356;50.544;9.642;2023-04-03T00:45:39;99359.47;;;3.27;79.58
20394;BME280;10356;50.544;9.642;2023-04-03T00:48:09;99355.22;;;3.26;80.09
20394;BME280;10356;50.544;9.642;2023-04-03T00:50:39;99358.75;;;3.22;80.69
20394;BME280;10356;50.544;9.642;2023-04-03T00:53:09;99357.34;;;3.12;80.68
20394;BME280;10356;50.544;9.642;2023-04-03T00:55:38;99361.19;;;2.99;79.34
20394;BME280;10356;50.544;9.642;2023-04-03T00:58:06;99361.38;;;2.93;79.58
20394;BME280;10356;50.544;9.642;2023-04-03T01:00:33;99362.59;;;2.80;79.98
20394;BME280;10356;50.544;9.642;2023-04-03T01:03:02;99355.84;;;2.76;79.97
20394;BME280;10356;50.544;9.642;2023-04-03T01:05:29;99359.31;;;2.75;80.23
20394;BME280;10356;50.544;9.642;2023-04-03T01:07:56;99360.53;;;2.62;81.19
20394;BME280;10356;50.544;9.642;2023-04-03T01:10:23;99357.41;;;2.50;81.33
20394;BME280;10356;50.544;9.642;2023-04-03T01:12:51;99363.34;;;2.52;81.11
20394;BME280;10356;50.544;9.642;2023-04-03T01:15:21;99367.84;;;2.44;81.00
20394;BME280;10356;50.544;9.642;2023-04-03T01:17:51;99366.34;;;2.37;81.78
20394;BME280;10356;50.544;9.642;2023-04-03T01:23:46;99366.69;;;2.25;81.31
20394;BME280;10356;50.544;9.642;2023-04-03T01:26:17;99372.03;;;2.16;81.32
20394;BME280;10356;50.544;9.642;2023-04-03T01:28:45;99369.63;;;2.12;81.34
20394;BME280;10356;50.544;9.642;2023-04-03T01:31:19;99363.94;;;1.99;82.04
20394;BME280;10356;50.544;9.642;2023-04-03T01:33:49;99371.81;;;1.93;82.19
20394;BME280;10356;50.544;9.642;2023-04-03T01:36:19;99376.13;;;1.91;82.85
20394;BME280;10356;50.544;9.642;2023-04-03T01:38:46;99371.16;;;1.85;82.96
20394;BME280;10356;50.544;9.642;2023-04-03T01:41:13;99377.97;;;1.86;82.74
20394;BME280;10356;50.544;9.642;2023-04-03T01:43:43;99382.38;;;1.81;83.25
20394;BME280;10356;50.544;9.642;2023-04-03T01:46:10;99376.50;;;1.76;84.06
20394;BME280;10356;50.544;9.642;2023-04-03T01:48:36;99390.22;;;1.75;83.98
20394;BME280;10356;50.544;9.642;2023-04-03T01:51:04;99388.47;;;1.77;83.88
20394;BME280;10356;50.544;9.642;2023-04-03T01:53:31;99379.16;;;1.73;83.76
20394;BME280;10356;50.544;9.642;2023-04-03T01:55:58;99387.88;;;1.66;84.41
20394;BME280;10356;50.544;9.642;2023-04-03T01:58:24;99394.94;;;1.56;85.32
20394;BME280;10356;50.544;9.642;2023-04-03T02:00:51;99390.81;;;1.51;85.81
20394;BME280;10356;50.544;9.642;2023-04-03T02:03:18;99395.84;;;1.54;85.26
20394;BME280;10356;50.544;9.642;2023-04-03T02:05:45;99396.28;;;1.36;86.46
20394;BME280;10356;50.544;9.642;2023-04-03T02:08:13;99392.91;;;1.34;86.46
20394;BME280;10356;50.544;9.642;2023-04-03T02:10:40;99392.97;;;1.31;87.06
20394;BME280;10356;50.544;9.642;2023-04-03T02:13:07;99400.81;;;1.25;87.42
20394;BME280;10356;50.544;9.642;2023-04-03T02:15:33;99400.19;;;1.14;87.99
20394;BME280;10356;50.544;9.642;2023-04-03T02:18:00;99397.03;;;1.03;88.57
20394;BME280;10356;50.544;9.642;2023-04-03T02:20:27;99403.78;;;1.07;88.36
20394;BME280;10356;50.544;9.642;2023-04-03T02:22:53;99403.09;;;0.97;88.63
20394;BME280;10356;50.544;9.642;2023-04-03T02:25:21;99410.09;;;0.89;88.87
20394;BME280;10356;50.544;9.642;2023-04-03T02:27:47;99403.25;;;0.90;89.13
20394;BME280;10356;50.544;9.642;2023-04-03T02:30:14;99409.28;;;0.87;89.61
20394;BME280;10356;50.544;9.642;2023-04-03T02:32:41;99409.38;;;0.84;89.44
20394;BME280;10356;50.544;9.642;2023-04-03T02:35:08;99408.31;;;0.94;88.92
20394;BME280;10356;50.544;9.642;2023-04-03T02:37:35;99410.16;;;0.88;88.83
20394;BME280;10356;50.544;9.642;2023-04-03T02:40:02;99412.09;;;0.76;89.81
20394;BME280;10356;50.544;9.642;2023-04-03T02:42:31;99409.66;;;0.70;90.31
20394;BME280;10356;50.544;9.642;2023-04-03T02:44:57;99406.97;;;0.75;90.16
20394;BME280;10356;50.544;9.642;2023-04-03T02:47:25;99411.28;;;0.73;90.39
20394;BME280;10356;50.544;9.642;2023-04-03T02:49:52;99397.66;;;0.72;90.76
20394;BME280;10356;50.544;9.642;2023-04-03T02:52:18;99404.44;;;0.73;90.67
20394;BME280;10356;50.544;9.642;2023-04-03T02:54:45;99404.66;;;0.64;91.21
20394;BME280;10356;50.544;9.642;2023-04-03T02:57:11;99406.31;;;0.65;91.46
20394;BME280;10356;50.544;9.642;2023-04-03T02:59:39;99403.94;;;0.55;91.85
20394;BME280;10356;50.544;9.642;2023-04-03T03:02:06;99400.56;;;0.54;92.26
20394;BME280;10356;50.544;9.642;2023-04-03T03:04:33;99404.88;;;0.52;92.45
20394;BME280;10356;50.544;9.642;2023-04-03T03:07:00;99407.31;;;0.57;92.01
20394;BME280;10356;50.544;9.642;2023-04-03T03:09:26;99403.16;;;0.51;92.64
20394;BME280;10356;50.544;9.642;2023-04-03T03:11:53;99399.88;;;0.46;92.60
20394;BME280;10356;50.544;9.642;2023-04-03T03:14:19;99404.06;;;0.49;92.35
20394;BME280;10356;50.544;9.642;2023-04-03T03:16:47;99406.66;;;0.47;92.66
20394;BME280;10356;50.544;9.642;2023-04-03T03:19:13;99405.69;;;0.53;92.45
20394;BME280;10356;50.544;9.642;2023-04-03T03:21:40;99399.97;;;0.39;93.04
20394;BME280;10356;50.544;9.642;2023-04-03T03:24:07;99412.81;;;0.39;93.52
20394;BME280;10356;50.544;9.642;2023-04-03T03:26:33;99408.59;;;0.36;93.93
20394;BME280;10356;50.544;9.642;2023-04-03T03:29:00;99413.66;;;0.39;93.93
20394;BME280;10356;50.544;9.642;2023-04-03T03:31:26;99412.69;;;0.45;93.23
20394;BME280;10356;50.544;9.642;2023-04-03T03:33:54;99418.75;;;0.42;93.05
20394;BME280;10356;50.544;9.642;2023-04-03T03:36:20;99410.28;;;0.37;93.18
20394;BME280;10356;50.544;9.642;2023-04-03T03:38:47;99411.91;;;0.41;93.13
20394;BME280;10356;50.544;9.642;2023-04-03T03:41:13;99413.75;;;0.33;93.60
20394;BME280;10356;50.544;9.642;2023-04-03T03:43:40;99410.38;;;0.31;93.92
20394;BME280;10356;50.544;9.642;2023-04-03T03:46:06;99417.34;;;0.23;94.21
20394;BME280;10356;50.544;9.642;2023-04-03T03:48:33;99413.00;;;0.27;94.36
20394;BME280;10356;50.544;9.642;2023-04-03T03:51:00;99413.88;;;0.27;94.58
20394;BME280;10356;50.544;9.642;2023-04-03T03:53:27;99417.34;;;0.23;94.94
20394;BME280;10356;50.544;9.642;2023-04-03T03:55:53;99417.44;;;0.20;94.94
20394;BME280;10356;50.544;9.642;2023-04-03T03:58:20;99421.53;;;0.29;94.98
20394;BME280;10356;50.544;9.642;2023-04-03T04:00:46;99415.63;;;0.25;94.75
20394;BME280;10356;50.544;9.642;2023-04-03T04:03:13;99421.69;;;0.20;95.05
20394;BME280;10356;50.544;9.642;2023-04-03T04:05:39;99423.56;;;0.12;95.55
20394;BME280;10356;50.544;9.642;2023-04-03T04:08:07;99428.75;;;0.07;95.96
20394;BME280;10356;50.544;9.642;2023-04-03T04:10:34;99424.50;;;0.06;95.93
20394;BME280;10356;50.544;9.642;2023-04-03T04:13:01;99429.72;;;0.00;95.89
20394;BME280;10356;50.544;9.642;2023-04-03T04:15:27;99435.72;;;-0.01;96.35
20394;BME280;10356;50.544;9.642;2023-04-03T04:17:54;99434.84;;;0.00;96.23
20394;BME280;10356;50.544;9.642;2023-04-03T04:20:22;99434.91;;;-0.05;96.21
20394;BME280;10356;50.544;9.642;2023-04-03T04:22:48;99433.19;;;-0.03;96.34
20394;BME280;10356;50.544;9.642;2023-04-03T04:25:16;99432.34;;;-0.05;96.42
20394;BME280;10356;50.544;9.642;2023-04-03T04:27:43;99436.66;;;-0.08;96.30
20394;BME280;10356;50.544;9.642;2023-04-03T04:30:10;99432.47;;;-0.11;96.56
20394;BME280;10356;50.544;9.642;2023-04-03T04:32:37;99431.53;;;-0.08;96.39
20394;BME280;10356;50.544;9.642;2023-04-03T04:35:04;99435.03;;;-0.11;96.57
20394;BME280;10356;50.544;9.642;2023-04-03T04:37:31;99434.16;;;-0.11;96.25
20394;BME280;10356;50.544;9.642;2023-04-03T04:39:57;99432.47;;;-0.12;95.96
20394;BME280;10356;50.544;9.642;2023-04-03T04:42:25;99430.91;;;-0.21;96.29
20394;BME280;10356;50.544;9.642;2023-04-03T04:44:52;99429.16;;;-0.20;96.68
20394;BME280;10356;50.544;9.642;2023-04-03T04:47:18;99437.66;;;-0.15;96.32
20394;BME280;10356;50.544;9.642;2023-04-03T04:49:45;99434.19;;;-0.13;96.34
20394;BME280;10356;50.544;9.642;2023-04-03T04:52:12;99441.03;;;-0.13;95.88
20394;BME280;10356;50.544;9.642;2023-04-03T04:54:39;99434.22;;;-0.16;96.04
20394;BME280;10356;50.544;9.642;2023-04-03T04:57:05;99442.78;;;-0.18;96.89
20394;BME280;10356;50.544;9.642;2023-04-03T04:59:33;99446.31;;;-0.24;97.34
20394;BME280;10356;50.544;9.642;2023-04-03T05:01:59;99444.50;;;-0.17;97.35
20394;BME280;10356;50.544;9.642;2023-04-03T05:04:26;99446.19;;;-0.16;97.35
20394;BME280;10356;50.544;9.642;2023-04-03T05:06:52;99450.25;;;-0.03;96.82
20394;BME280;10356;50.544;9.642;2023-04-03T05:09:19;99451.91;;;0.01;96.07
20394;BME280;10356;50.544;9.642;2023-04-03T05:11:46;99446.78;;;0.01;95.78
20394;BME280;10356;50.544;9.642;2023-04-03T05:14:12;99450.94;;;0.08;95.33
20394;BME280;10356;50.544;9.642;2023-04-03T05:16:40;99461.94;;;0.13;94.76
20394;BME280;10356;50.544;9.642;2023-04-03T05:19:07;99459.28;;;0.19;93.64
20394;BME280;10356;50.544;9.642;2023-04-03T05:21:34;99461.88;;;0.18;94.13
20394;BME280;10356;50.544;9.642;2023-04-03T05:24:01;99467.75;;;0.23;94.38
20394;BME280;10356;50.544;9.642;2023-04-03T05:26:29;99462.56;;;0.27;94.11
20394;BME280;10356;50.544;9.642;2023-04-03T05:28:55;99471.97;;;0.28;93.58
20394;BME280;10356;50.544;9.642;2023-04-03T05:31:22;99473.63;;;0.29;93.74
20394;BME280;10356;50.544;9.642;2023-04-03T05:33:50;99467.50;;;0.38;93.15
20394;BME280;10356;50.544;9.642;2023-04-03T05:36:16;99478.50;;;0.44;92.70
20394;BME280;10356;50.544;9.642;2023-04-03T05:38:43;99483.25;;;0.65;91.43
20394;BME280;10356;50.544;9.642;2023-04-03T05:41:11;99496.97;;;0.64;88.13
20394;BME280;10356;50.544;9.642;2023-04-03T05:43:37;99485.75;;;0.70;88.01
20394;BME280;10356;50.544;9.642;2023-04-03T05:46:04;99486.38;;;0.82;86.55
20394;BME280;10356;50.544;9.642;2023-04-03T05:48:33;99480.41;;;0.79;86.12
20394;BME280;10356;50.544;9.642;2023-04-03T05:51:01;99481.03;;;0.92;85.36
20394;BME280;10356;50.544;9.642;2023-04-03T05:53:28;99490.72;;;0.77;84.51
20394;BME280;10356;50.544;9.642;2023-04-03T05:55:55;99491.75;;;0.67;84.93
20394;BME280;10356;50.544;9.642;2023-04-03T05:58:22;99494.28;;;0.70;84.53
20394;BME280;10356;50.544;9.642;2023-04-03T06:00:48;99494.53;;;0.55;84.43
20394;BME280;10356;50.544;9.642;2023-04-03T06:03:15;99491.94;;;0.57;84.70
20394;BME280;10356;50.544;9.642;2023-04-03T06:05:41;99498.88;;;0.52;84.63
20394;BME280;10356;50.544;9.642;2023-04-03T06:08:09;99499.63;;;0.58;84.69
20394;BME280;10356;50.544;9.642;2023-04-03T06:10:36;99500.56;;;0.54;83.64
20394;BME280;10356;50.544;9.642;2023-04-03T06:13:02;99510.63;;;0.63;83.61
20394;BME280;10356;50.544;9.642;2023-04-03T06:15:29;99505.47;;;0.66;83.69
20394;BME280;10356;50.544;9.642;2023-04-03T06:17:55;99511.34;;;0.71;83.27
20394;BME280;10356;50.544;9.642;2023-04-03T06:20:22;99513.91;;;0.71;82.44
20394;BME280;10356;50.544;9.642;2023-04-03T06:22:48;99522.19;;;0.85;83.48
20394;BME280;10356;50.544;9.642;2023-04-03T06:25:17;99522.16;;;0.89;81.18
20394;BME280;10356;50.544;9.642;2023-04-03T06:27:45;99524.00;;;0.82;81.43
20394;BME280;10356;50.544;9.642;2023-04-03T06:30:12;99524.63;;;0.95;81.15
20394;BME280;10356;50.544;9.642;2023-04-03T06:32:38;99532.25;;;0.98;80.56
20394;BME280;10356;50.544;9.642;2023-04-03T06:35:06;99532.31;;;0.95;80.00
20394;BME280;10356;50.544;9.642;2023-04-03T06:37:33;99532.25;;;0.98;80.81
20394;BME280;10356;50.544;9.642;2023-04-03T06:40:00;99532.94;;;1.06;79.33
20394;BME280;10356;50.544;9.642;2023-04-03T06:42:28;99546.66;;;1.03;80.33
20394;BME280;10356;50.544;9.642;2023-04-03T06:44:54;99544.75;;;1.14;79.80
20394;BME280;10356;50.544;9.642;2023-04-03T06:47:21;99546.88;;;1.37;78.78
20394;BME280;10356;50.544;9.642;2023-04-03T06:49:47;99548.91;;;1.62;77.85
20394;BME280;10356;50.544;9.642;2023-04-03T06:52:14;99542.53;;;1.80;77.09
20394;BME280;10356;50.544;9.642;2023-04-03T06:54:41;99540.56;;;1.93;75.92
20394;BME280;10356;50.544;9.642;2023-04-03T06:57:07;99540.72;;;1.85;75.60
20394;BME280;10356;50.544;9.642;2023-04-03T06:59:35;99546.31;;;2.02;76.35
20394;BME280;10356;50.544;9.642;2023-04-03T07:02:02;99546.81;;;2.19;74.02
20394;BME280;10356;50.544;9.642;2023-04-03T07:04:29;99546.84;;;2.16;74.11
20394;BME280;10356;50.544;9.642;2023-04-03T07:06:55;99548.25;;;2.66;75.06
20394;BME280;10356;50.544;9.642;2023-04-03T07:09:22;99543.38;;;2.88;72.41
20394;BME280;10356;50.544;9.642;2023-04-03T07:11:49;99551.94;;;2.56;74.89
20394;BME280;10356;50.544;9.642;2023-04-03T07:14:16;99548.09;;;2.72;71.13
20394;BME280;10356;50.544;9.642;2023-04-03T07:16:44;99557.78;;;2.63;70.60
20394;BME280;10356;50.544;9.642;2023-04-03T07:19:10;99554.09;;;3.05;69.50
20394;BME280;10356;50.544;9.642;2023-04-03T07:21:37;99558.31;;;3.69;71.51
20394;BME280;10356;50.544;9.642;2023-04-03T07:24:03;99569.13;;;3.80;68.04
20394;BME280;10356;50.544;9.642;2023-04-03T07:26:30;99563.94;;;3.52;69.02
20394;BME280;10356;50.544;9.642;2023-04-03T07:28:56;99568.47;;;3.44;70.99
20394;BME280;10356;50.544;9.642;2023-04-03T07:31:23;99577.09;;;3.43;70.56
20394;BME280;10356;50.544;9.642;2023-04-03T07:33:51;99586.03;;;3.30;69.22
20394;BME280;10356;50.544;9.642;2023-04-03T07:36:19;99590.31;;;3.31;67.85
20394;BME280;10356;50.544;9.642;2023-04-03T07:38:46;99586.94;;;3.27;71.15
20394;BME280;10356;50.544;9.642;2023-04-03T07:41:14;99599.97;;;3.21;69.79
20394;BME280;10356;50.544;9.642;2023-04-03T07:43:42;99595.63;;;2.91;71.57
20394;BME280;10356;50.544;9.642;2023-04-03T07:46:09;99600.16;;;2.82;71.02
20394;BME280;10356;50.544;9.642;2023-04-03T07:48:36;99614.63;;;2.50;71.74
20394;BME280;10356;50.544;9.642;2023-04-03T07:51:04;99608.00;;;2.40;72.91
20394;BME280;10356;50.544;9.642;2023-04-03T07:53:31;99613.28;;;2.34;71.97
20394;BME280;10356;50.544;9.642;2023-04-03T07:55:58;99606.25;;;2.06;72.80
20394;BME280;10356;50.544;9.642;2023-04-03T07:58:25;99617.34;;;2.46;74.22
20394;BME280;10356;50.544;9.642;2023-04-03T08:00:52;99611.47;;;2.76;72.45
20394;BME280;10356;50.544;9.642;2023-04-03T08:03:19;99618.63;;;3.31;70.20
20394;BME280;10356;50.544;9.642;2023-04-03T08:05:47;99614.63;;;3.21;71.23
20394;BME280;10356;50.544;9.642;2023-04-03T08:08:17;99620.13;;;3.06;70.82
20394;BME280;10356;50.544;9.642;2023-04-03T08:10:48;99616.03;;;2.64;71.88
20394;BME280;10356;50.544;9.642;2023-04-03T08:13:15;99615.91;;;2.70;71.13
20394;BME280;10356;50.544;9.642;2023-04-03T08:15:41;99617.91;;;3.26;70.99
20394;BME280;10356;50.544;9.642;2023-04-03T08:18:08;99621.53;;;2.48;70.78
20394;BME280;10356;50.544;9.642;2023-04-03T08:20:35;99622.66;;;2.74;71.54
20394;BME280;10356;50.544;9.642;2023-04-03T08:23:01;99616.31;;;3.53;68.73
20394;BME280;10356;50.544;9.642;2023-04-03T08:25:29;99616.13;;;4.18;68.93
20394;BME280;10356;50.544;9.642;2023-04-03T08:27:56;99611.91;;;3.87;65.62
20394;BME280;10356;50.544;9.642;2023-04-03T08:30:22;99619.44;;;3.33;67.33
20394;BME280;10356;50.544;9.642;2023-04-03T08:32:49;99625.28;;;3.06;67.51
20394;BME280;10356;50.544;9.642;2023-04-03T08:35:15;99615.63;;;3.14;65.77
20394;BME280;10356;50.544;9.642;2023-04-03T08:37:42;99617.47;;;3.10;66.51
20394;BME280;10356;50.544;9.642;2023-04-03T08:40:13;99618.00;;;3.23;68.80
20394;BME280;10356;50.544;9.642;2023-04-03T08:42:53;99618.22;;;3.14;69.13
20394;BME280;10356;50.544;9.642;2023-04-03T08:45:28;99612.91;;;3.20;69.50
20394;BME280;10356;50.544;9.642;2023-04-03T08:48:00;99610.31;;;3.52;67.09
20394;BME280;10356;50.544;9.642;2023-04-03T08:50:33;99616.31;;;3.83;67.97
20394;BME280;10356;50.544;9.642;2023-04-03T08:53:02;99620.75;;;3.78;65.06
20394;BME280;10356;50.544;9.642;2023-04-03T08:55:33;99613.88;;;3.79;64.21
20394;BME280;10356;50.544;9.642;2023-04-03T08:58:04;99614.41;;;4.19;64.05
20394;BME280;10356;50.544;9.642;2023-04-03T09:00:37;99617.03;;;4.17;59.23
20394;BME280;10356;50.544;9.642;2023-04-03T09:03:12;99617.56;;;4.55;60.04
20394;BME280;10356;50.544;9.642;2023-04-03T09:05:41;99604.59;;;4.84;59.36
20394;BME280;10356;50.544;9.642;2023-04-03T09:08:21;99616.78;;;4.79;60.12
20394;BME280;10356;50.544;9.642;2023-04-03T09:10:49;99610.78;;;5.04;59.64
20394;BME280;10356;50.544;9.642;2023-04-03T09:13:26;99601.63;;;4.70;58.02
20394;BME280;10356;50.544;9.642;2023-04-03T09:15:56;99605.66;;;4.51;56.61
20394;BME280;10356;50.544;9.642;2023-04-03T09:18:26;99609.88;;;3.98;60.48
20394;BME280;10356;50.544;9.642;2023-04-03T09:21:01;99604.63;;;4.28;57.55
20394;BME280;10356;50.544;9.642;2023-04-03T09:23:33;99605.78;;;3.91;59.02
20394;BME280;10356;50.544;9.642;2023-04-03T09:26:05;99608.19;;;3.97;60.52
20394;BME280;10356;50.544;9.642;2023-04-03T09:28:38;99607.81;;;4.64;57.15
20394;BME280;10356;50.544;9.642;2023-04-03T09:31:16;99592.88;;;4.48;57.65
20394;BME280;10356;50.544;9.642;2023-04-03T09:33:45;99601.53;;;3.90;58.85
20394;BME280;10356;50.544;9.642;2023-04-03T09:36:12;99594.00;;;3.82;58.32
20394;BME280;10356;50.544;9.642;2023-04-03T09:38:39;99603.44;;;3.83;57.60
20394;BME280;10356;50.544;9.642;2023-04-03T09:41:06;99601.44;;;3.62;56.65
20394;BME280;10356;50.544;9.642;2023-04-03T09:43:37;99599.69;;;4.49;57.16
20394;BME280;10356;50.544;9.642;2023-04-03T09:46:32;99609.53;;;4.38;55.04
20394;BME280;10356;50.544;9.642;2023-04-03T09:49:00;99598.47;;;4.33;55.02
20394;BME280;10356;50.544;9.642;2023-04-03T09:51:28;99608.84;;;4.59;54.32
20394;BME280;10356;50.544;9.642;2023-04-03T09:53:55;99594.56;;;5.26;52.85
20394;BME280;10356;50.544;9.642;2023-04-03T09:56:25;99591.97;;;4.75;54.56
20394;BME280;10356;50.544;9.642;2023-04-03T09:59:08;99607.41;;;5.02;55.56
20394;BME280;10356;50.544;9.642;2023-04-03T10:01:41;99604.06;;;4.47;52.11
20394;BME280;10356;50.544;9.642;2023-04-03T10:04:11;99608.75;;;4.62;51.87
20394;BME280;10356;50.544;9.642;2023-04-03T10:06:39;99596.06;;;4.56;52.88
20394;BME280;10356;50.544;9.642;2023-04-03T10:09:17;99614.00;;;4.59;53.06
20394;BME280;10356;50.544;9.642;2023-04-03T10:11:58;99604.94;;;5.24;53.47
20394;BME280;10356;50.544;9.642;2023-04-03T10:14:27;99596.19;;;5.28;53.33
20394;BME280;10356;50.544;9.642;2023-04-03T10:17:02;99584.69;;;5.84;50.56
20394;BME280;10356;50.544;9.642;2023-04-03T10:19:35;99595.13;;;5.09;50.88
20394;BME280;10356;50.544;9.642;2023-04-03T10:22:09;99583.22;;;6.01;52.13
20394;BME280;10356;50.544;9.642;2023-04-03T10:24:47;99571.66;;;6.54;49.48
20394;BME280;10356;50.544;9.642;2023-04-03T10:27:18;99577.00;;;6.91;48.20
20394;BME280;10356;50.544;9.642;2023-04-03T10:29:55;99578.69;;;6.29;47.80
20394;BME280;10356;50.544;9.642;2023-04-03T10:32:40;99582.41;;;6.22;46.79
20394;BME280;10356;50.544;9.642;2023-04-03T10:35:17;99572.53;;;6.74;49.46
20394;BME280;10356;50.544;9.642;2023-04-03T10:37:57;99569.88;;;6.96;47.10
20394;BME280;10356;50.544;9.642;2023-04-03T10:40:30;99570.56;;;6.79;48.62
20394;BME280;10356;50.544;9.642;2023-04-03T10:43:06;99579.28;;;6.35;45.88
20394;BME280;10356;50.544;9.642;2023-04-03T10:45:49;99573.25;;;6.35;47.08
20394;BME280;10356;50.544;9.642;2023-04-03T10:48:25;99569.47;;;6.85;47.40
20394;BME280;10356;50.544;9.642;2023-04-03T10:51:01;99587.06;;;6.77;47.67
20394;BME280;10356;50.544;9.642;2023-04-03T10:53:35;99579.03;;;6.20;46.97
20394;BME280;10356;50.544;9.642;2023-04-03T10:56:11;99565.13;;;5.77;48.69
20394;BME280;10356;50.544;9.642;2023-04-03T10:58:43;99573.94;;;5.24;47.94
20394;BME280;10356;50.544;9.642;2023-04-03T11:01:14;99570.03;;;4.88;50.00
20394;BME280;10356;50.544;9.642;2023-04-03T11:03:45;99583.88;;;4.85;51.41
20394;BME280;10356;50.544;9.642;2023-04-03T11:06:15;99573.00;;;5.27;48.50
20394;BME280;10356;50.544;9.642;2023-04-03T11:08:44;99558.81;;;5.61;48.88
20394;BME280;10356;50.544;9.642;2023-04-03T11:11:15;99558.69;;;6.11;49.02
20394;BME280;10356;50.544;9.642;2023-04-03T11:13:45;99568.38;;;6.06;47.40
20394;BME280;10356;50.544;9.642;2023-04-03T11:16:18;99562.38;;;6.27;48.03
20394;BME280;10356;50.544;9.642;2023-04-03T11:18:49;99551.72;;;6.13;46.67
20394;BME280;10356;50.544;9.642;2023-04-03T11:21:26;99552.69;;;6.73;45.96
20394;BME280;10356;50.544;9.642;2023-04-03T11:23:57;99542.94;;;7.00;46.82
20394;BME280;10356;50.544;9.642;2023-04-03T11:26:27;99547.19;;;7.21;46.91
20394;BME280;10356;50.544;9.642;2023-04-03T11:28:58;99535.25;;;6.99;47.01
20394;BME280;10356;50.544;9.642;2023-04-03T11:31:38;99538.97;;;6.92;44.69
20394;BME280;10356;50.544;9.642;2023-04-03T11:34:19;99541.25;;;6.16;48.12
20394;BME280;10356;50.544;9.642;2023-04-03T11:36:52;99537.91;;;5.90;47.90
20394;BME280;10356;50.544;9.642;2023-04-03T11:39:22;99544.97;;;6.30;48.85
20394;BME280;10356;50.544;9.642;2023-04-03T11:41:50;99531.34;;;6.47;48.59
20394;BME280;10356;50.544;9.642;2023-04-03T11:44:30;99534.38;;;6.98;47.63
20394;BME280;10356;50.544;9.642;2023-04-03T11:47:01;99530.56;;;7.45;46.78
20394;BME280;10356;50.544;9.642;2023-04-03T11:49:59;99514.19;;;7.63;46.68
20394;BME280;10356;50.544;9.642;2023-04-03T11:53:01;99511.63;;;7.43;46.28
20394;BME280;10356;50.544;9.642;2023-04-03T11:55:57;99516.38;;;6.95;45.73
20394;BME280;10356;50.544;9.642;2023-04-03T11:58:25;99506.50;;;6.63;46.00
20394;BME280;10356;50.544;9.642;2023-04-03T12:00:54;99521.16;;;6.64;47.12
20394;BME280;10356;50.544;9.642;2023-04-03T12:04:06;99508.69;;;7.32;46.82
20394;BME280;10356;50.544;9.642;2023-04-03T12:09:52;99522.31;;;6.77;45.47
20394;BME280;10356;50.544;9.642;2023-04-03T12:21:18;99499.16;;;7.51;45.45
20394;BME280;10356;50.544;9.642;2023-04-03T12:24:05;99514.75;;;7.70;42.61
20394;BME280;10356;50.544;9.642;2023-04-03T12:26:51;99502.53;;;7.53;42.68
20394;BME280;10356;50.544;9.642;2023-04-03T12:29:33;99492.91;;;7.18;44.48
20394;BME280;10356;50.544;9.642;2023-04-03T12:32:12;99490.19;;;7.40;44.78
20394;BME280;10356;50.544;9.642;2023-04-03T12:35:01;99488.31;;;7.62;43.11
20394;BME280;10356;50.544;9.642;2023-04-03T12:37:44;99480.63;;;7.60;44.18
20394;BME280;10356;50.544;9.642;2023-04-03T12:40:24;99475.91;;;7.50;45.76
20394;BME280;10356;50.544;9.642;2023-04-03T12:45:45;99481.81;;;6.76;47.24
20394;BME280;10356;50.544;9.642;2023-04-03T12:48:15;99479.31;;;6.93;45.22
20394;BME280;10356;50.544;9.642;2023-04-03T12:50:45;99487.13;;;7.50;45.91
20394;BME280;10356;50.544;9.642;2023-04-03T12:53:16;99468.41;;;7.05;45.85
20394;BME280;10356;50.544;9.642;2023-04-03T12:55:44;99476.28;;;6.63;45.61
20394;BME280;10356;50.544;9.642;2023-04-03T12:58:20;99466.63;;;6.87;45.41
20394;BME280;10356;50.544;9.642;2023-04-03T13:00:58;99468.22;;;7.10;45.50
20394;BME280;10356;50.544;9.642;2023-04-03T13:03:26;99456.69;;;7.35;44.43
20394;BME280;10356;50.544;9.642;2023-04-03T13:05:54;99478.28;;;7.54;45.27
20394;BME280;10356;50.544;9.642;2023-04-03T13:08:24;99463.72;;;6.95;47.51
20394;BME280;10356;50.544;9.642;2023-04-03T13:10:54;99452.00;;;7.43;46.80
20394;BME280;10356;50.544;9.642;2023-04-03T13:13:22;99453.50;;;8.03;46.28
20394;BME280;10356;50.544;9.642;2023-04-03T13:15:49;99449.66;;;7.93;45.44
20394;BME280;10356;50.544;9.642;2023-04-03T13:18:28;99452.50;;;7.51;44.43
20394;BME280;10356;50.544;9.642;2023-04-03T13:21:00;99452.53;;;6.74;46.65
20394;BME280;10356;50.544;9.642;2023-04-03T13:23:29;99452.78;;;6.88;47.21
20394;BME280;10356;50.544;9.642;2023-04-03T13:25:57;99449.28;;;6.69;46.91
20394;BME280;10356;50.544;9.642;2023-04-03T13:28:27;99455.09;;;6.94;46.62
20394;BME280;10356;50.544;9.642;2023-04-03T13:30:58;99445.66;;;6.73;46.17
20394;BME280;10356;50.544;9.642;2023-04-03T13:33:30;99445.00;;;7.27;46.06
20394;BME280;10356;50.544;9.642;2023-04-03T13:36:00;99437.75;;;6.96;46.18
20394;BME280;10356;50.544;9.642;2023-04-03T13:38:32;99435.31;;;7.12;45.85
20394;BME280;10356;50.544;9.642;2023-04-03T13:41:01;99441.75;;;6.83;45.96